createdAt,value
2019-02-28T00:01:46.462Z,39.83
2019-02-28T00:04:21.640Z,33.75
2019-02-28T00:06:53.809Z,32.58
2019-02-28T00:09:26.447Z,29.92
2019-02-28T00:11:56.907Z,30.52
2019-02-28T00:14:28.528Z,33.05
2019-02-28T00:17:00.124Z,33.80
2019-02-28T00:19:32.035Z,33.13
2019-02-28T00:22:02.911Z,29.92
2019-02-28T00:24:34.254Z,29.72
2019-02-28T00:27:05.603Z,29.42
2019-02-28T00:29:36.029Z,28.35
2019-02-28T00:32:09.172Z,29.48
2019-02-28T00:34:39.925Z,33.87
2019-02-28T00:37:10.711Z,34.60
2019-02-28T00:39:42.237Z,38.60
2019-02-28T00:42:17.443Z,41.08
2019-02-28T00:44:48.678Z,42.05
2019-02-28T00:47:20.097Z,47.85
2019-02-28T00:49:55.010Z,53.58
2019-02-28T00:52:24.508Z,56.75
2019-02-28T00:54:56.981Z,62.62
2019-02-28T00:57:27.501Z,64.87
2019-02-28T00:59:58.742Z,65.60
2019-02-28T01:02:29.791Z,65.57
2019-02-28T01:05:04.823Z,67.40
2019-02-28T01:07:34.732Z,64.50
2019-02-28T01:10:08.629Z,68.45
2019-02-28T01:12:38.971Z,61.73
2019-02-28T01:15:15.842Z,58.87
2019-02-28T01:17:50.052Z,58.38
2019-02-28T01:20:21.092Z,54.60
2019-02-28T01:22:53.567Z,54.30
2019-02-28T01:25:25.008Z,52.15
2019-02-28T01:27:56.054Z,53.13
2019-02-28T01:30:27.096Z,53.75
2019-02-28T01:32:59.598Z,54.45
2019-02-28T01:35:34.088Z,58.40
2019-02-28T01:38:04.820Z,59.73
2019-02-28T01:40:38.444Z,59.67
2019-02-28T01:43:11.613Z,59.77
2019-02-28T01:45:44.501Z,59.98
2019-02-28T01:48:16.046Z,59.98
2019-02-28T01:50:48.884Z,64.20
2019-02-28T01:53:19.693Z,63.68
2019-02-28T01:55:50.700Z,63.55
2019-02-28T01:58:23.172Z,59.83
2019-02-28T02:00:57.386Z,59.48
2019-02-28T02:03:26.784Z,59.95
2019-02-28T02:05:57.531Z,55.38
2019-02-28T02:08:29.995Z,56.18
2019-02-28T02:11:00.528Z,58.52
2019-02-28T02:13:36.829Z,55.38
2019-02-28T02:16:07.109Z,55.12
2019-02-28T02:18:40.321Z,54.05
2019-02-28T02:21:10.415Z,54.35
2019-02-28T02:23:41.248Z,58.17
2019-02-28T02:26:14.542Z,60.67
2019-02-28T02:28:45.101Z,68.42
2019-02-28T02:31:15.703Z,65.08
2019-02-28T02:33:50.855Z,69.72
2019-02-28T02:36:20.239Z,70.20
2019-02-28T02:38:51.585Z,63.73
2019-02-28T02:43:55.928Z,47.33
2019-02-28T02:46:26.953Z,42.13
2019-02-28T02:48:58.088Z,37.93
2019-02-28T02:51:28.727Z,36.20
2019-02-28T02:53:59.466Z,34.08
2019-02-28T02:56:30.705Z,30.30
2019-02-28T02:59:02.347Z,30.70
2019-02-28T03:01:34.025Z,28.15
2019-02-28T03:04:06.895Z,26.42
2019-02-28T03:06:40.602Z,22.98
2019-02-28T03:09:11.253Z,19.00
2019-02-28T03:11:45.842Z,15.43
2019-02-28T03:14:17.371Z,14.50
2019-02-28T03:16:49.454Z,14.87
2019-02-28T03:19:21.427Z,14.53
2019-02-28T03:21:53.005Z,14.35
2019-02-28T03:24:24.020Z,13.83
2019-02-28T03:26:54.496Z,13.93
2019-02-28T03:29:26.196Z,15.08
2019-02-28T03:31:59.514Z,14.80
2019-02-28T03:34:29.610Z,15.05
2019-02-28T03:37:00.443Z,14.35
2019-02-28T03:39:31.591Z,14.30
2019-02-28T03:42:03.189Z,14.95
2019-02-28T03:44:33.564Z,13.90
2019-02-28T03:47:04.202Z,13.95
2019-02-28T03:49:35.010Z,13.98
2019-02-28T03:52:08.840Z,10.55
2019-02-28T03:54:39.772Z,13.48
2019-02-28T03:57:10.414Z,14.03
2019-02-28T03:59:43.386Z,14.47
2019-02-28T04:02:20.982Z,13.70
2019-02-28T04:04:50.185Z,14.23
2019-02-28T04:07:19.064Z,14.23
2019-02-28T04:09:49.796Z,13.68
2019-02-28T04:12:21.453Z,13.55
2019-02-28T04:14:56.848Z,13.03
2019-02-28T04:17:30.411Z,13.75
2019-02-28T04:20:00.667Z,12.40
2019-02-28T04:22:32.716Z,12.65
2019-02-28T04:25:02.930Z,12.28
2019-02-28T04:27:35.177Z,12.95
2019-02-28T04:30:11.837Z,13.08
2019-02-28T04:32:42.976Z,12.63
2019-02-28T04:35:14.121Z,12.28
2019-02-28T04:37:47.056Z,13.03
2019-02-28T04:40:24.072Z,13.45
2019-02-28T04:42:55.530Z,13.13
2019-02-28T04:45:27.067Z,13.78
2019-02-28T04:48:00.484Z,13.58
2019-02-28T04:50:32.268Z,13.85
2019-02-28T04:53:03.485Z,12.43
2019-02-28T04:55:37.336Z,14.57
2019-02-28T04:58:09.041Z,12.47
2019-02-28T05:00:39.879Z,14.70
2019-02-28T05:03:10.811Z,13.78
2019-02-28T05:05:46.595Z,13.45
2019-02-28T05:08:15.043Z,14.70
2019-02-28T05:10:45.689Z,14.87
2019-02-28T05:13:18.347Z,15.45
2019-02-28T05:15:49.070Z,14.75
2019-02-28T05:18:22.783Z,13.85
2019-02-28T05:20:53.215Z,14.07
2019-02-28T05:23:23.837Z,13.80
2019-02-28T05:25:55.903Z,13.88
2019-02-28T05:28:26.330Z,15.78
2019-02-28T05:30:57.466Z,15.20
2019-02-28T05:33:30.897Z,15.88
2019-02-28T05:36:04.331Z,16.90
2019-02-28T05:38:35.930Z,17.12
2019-02-28T05:41:06.439Z,18.57
2019-02-28T05:43:37.290Z,19.17
2019-02-28T05:46:08.215Z,19.20
2019-02-28T05:48:39.481Z,21.15
2019-02-28T05:51:10.293Z,21.82
2019-02-28T05:53:42.447Z,24.77
2019-02-28T05:56:14.010Z,26.00
2019-02-28T05:58:45.047Z,28.92
2019-02-28T06:01:17.390Z,31.62
2019-02-28T06:03:48.876Z,35.15
2019-02-28T06:06:20.973Z,37.10
2019-02-28T06:08:51.255Z,36.50
2019-02-28T06:11:21.884Z,37.48
2019-02-28T06:13:52.857Z,35.65
2019-02-28T06:16:24.473Z,33.18
2019-02-28T06:18:56.421Z,34.38
2019-02-28T06:21:27.908Z,32.67
2019-02-28T06:23:58.834Z,32.65
2019-02-28T06:26:31.792Z,30.72
2019-02-28T06:29:05.796Z,27.55
2019-02-28T06:31:36.660Z,28.57
2019-02-28T06:34:09.305Z,28.92
2019-02-28T06:36:39.661Z,27.20
2019-02-28T06:39:10.074Z,26.90
2019-02-28T06:41:41.086Z,28.32
2019-02-28T06:44:12.667Z,27.42
2019-02-28T06:46:44.032Z,26.95
2019-02-28T06:49:14.442Z,25.75
2019-02-28T06:51:45.071Z,25.08
2019-02-28T06:54:16.418Z,25.92
2019-02-28T06:56:46.951Z,21.82
2019-02-28T06:59:17.378Z,20.27
2019-02-28T07:01:56.656Z,21.40
2019-02-28T07:04:24.057Z,17.20
2019-02-28T07:06:56.019Z,16.40
2019-02-28T07:09:30.473Z,16.02
2019-02-28T07:12:00.870Z,14.18
2019-02-28T07:14:32.125Z,14.40
2019-02-28T07:17:03.248Z,14.00
2019-02-28T07:19:35.887Z,13.70
2019-02-28T07:22:07.172Z,13.98
2019-02-28T07:24:38.235Z,15.35
2019-02-28T07:27:09.255Z,15.30
2019-02-28T07:29:42.729Z,15.05
2019-02-28T07:32:13.179Z,15.63
2019-02-28T07:34:43.496Z,16.87
2019-02-28T07:37:18.602Z,14.80
2019-02-28T07:39:46.617Z,15.03
2019-02-28T07:42:17.642Z,16.50
2019-02-28T07:44:48.993Z,13.93
2019-02-28T07:47:20.746Z,14.07
2019-02-28T07:49:51.274Z,13.83
2019-02-28T07:52:21.803Z,13.05
2019-02-28T07:54:55.618Z,15.85
2019-02-28T07:57:25.082Z,14.20
2019-02-28T07:59:55.532Z,14.25
2019-02-28T08:02:26.982Z,13.08
2019-02-28T08:04:59.147Z,14.65
2019-02-28T08:07:30.189Z,13.55
2019-02-28T08:10:01.432Z,14.05
2019-02-28T08:12:32.382Z,13.78
2019-02-28T08:15:03.969Z,15.03
2019-02-28T08:17:35.432Z,15.50
2019-02-28T08:20:08.983Z,15.25
2019-02-28T08:22:40.023Z,16.10
2019-02-28T08:25:13.102Z,15.45
2019-02-28T08:27:43.833Z,17.17
2019-02-28T08:30:19.442Z,17.55
2019-02-28T08:32:49.294Z,16.70
2019-02-28T08:35:19.937Z,16.60
2019-02-28T08:37:55.626Z,16.55
2019-02-28T08:40:26.620Z,17.70
2019-02-28T08:42:59.580Z,18.10
2019-02-28T08:45:33.482Z,20.43
2019-02-28T08:48:02.192Z,20.95
2019-02-28T08:50:34.761Z,20.95
2019-02-28T08:53:07.842Z,21.60
2019-02-28T08:55:39.994Z,20.68
2019-02-28T08:58:12.714Z,22.10
2019-02-28T09:00:42.916Z,23.62
2019-02-28T09:03:13.548Z,22.70
2019-02-28T09:05:44.383Z,19.95
2019-02-28T09:08:16.134Z,22.55
2019-02-28T09:10:46.992Z,17.42
2019-02-28T09:13:18.931Z,12.25
2019-02-28T09:15:50.636Z,10.55
2019-02-28T09:18:21.418Z,8.95
2019-02-28T09:20:52.867Z,9.78
2019-02-28T09:23:23.698Z,9.70
2019-02-28T09:25:56.728Z,9.18
2019-02-28T09:28:28.653Z,8.00
2019-02-28T09:31:01.402Z,9.03
2019-02-28T09:33:31.750Z,9.88
2019-02-28T09:36:03.101Z,9.05
2019-02-28T09:38:34.443Z,9.73
2019-02-28T09:41:05.404Z,9.18
2019-02-28T09:43:36.844Z,8.88
2019-02-28T09:46:09.072Z,10.05
2019-02-28T09:48:39.848Z,10.65
2019-02-28T09:51:12.920Z,10.88
2019-02-28T09:53:47.325Z,11.08
2019-02-28T09:56:19.421Z,10.50
2019-02-28T09:58:49.837Z,11.03
2019-02-28T10:01:21.341Z,10.65
2019-02-28T10:03:55.322Z,10.18
2019-02-28T10:06:27.659Z,10.85
2019-02-28T10:08:58.799Z,10.23
2019-02-28T10:11:31.898Z,9.60
2019-02-28T10:14:03.129Z,9.00
2019-02-28T10:16:33.558Z,9.85
2019-02-28T10:19:05.320Z,9.48
2019-02-28T10:21:36.198Z,9.63
2019-02-28T10:24:07.491Z,9.93
2019-02-28T10:26:38.430Z,10.48
2019-02-28T10:29:10.288Z,11.00
2019-02-28T10:31:42.563Z,11.15
2019-02-28T10:34:15.141Z,10.90
2019-02-28T10:36:47.974Z,11.68
2019-02-28T10:39:18.170Z,11.50
2019-02-28T10:41:49.293Z,11.03
2019-02-28T10:44:21.753Z,11.28
2019-02-28T10:46:53.830Z,13.43
2019-02-28T10:49:25.722Z,13.55
2019-02-28T10:51:55.914Z,13.35
2019-02-28T10:54:26.524Z,13.72
2019-02-28T10:56:58.389Z,12.28
2019-02-28T10:59:29.324Z,13.18
2019-02-28T11:02:00.820Z,14.73
2019-02-28T11:04:31.508Z,14.78
2019-02-28T11:07:02.998Z,15.43
2019-02-28T11:09:33.593Z,15.43
2019-02-28T11:12:04.225Z,16.62
2019-02-28T11:14:35.529Z,15.60
2019-02-28T11:17:13.414Z,17.17
2019-02-28T11:19:39.172Z,17.00
2019-02-28T11:22:09.804Z,18.27
2019-02-28T11:24:40.843Z,17.02
2019-02-28T11:27:12.401Z,17.95
2019-02-28T11:29:43.742Z,19.50
2019-02-28T11:32:14.169Z,17.62
2019-02-28T11:34:45.840Z,16.70
2019-02-28T11:37:18.438Z,17.87
2019-02-28T11:39:48.723Z,17.52
2019-02-28T11:42:28.095Z,17.77
2019-02-28T11:44:59.001Z,17.23
2019-02-28T11:47:30.131Z,18.67
2019-02-28T11:50:04.694Z,17.52
2019-02-28T11:52:36.313Z,16.45
2019-02-28T11:55:12.080Z,14.93
2019-02-28T11:57:43.606Z,15.90
2019-02-28T12:00:35.831Z,16.97
2019-02-28T12:03:07.416Z,15.90
2019-02-28T12:05:37.653Z,17.05
2019-02-28T12:08:10.422Z,16.52
2019-02-28T12:10:41.160Z,15.58
2019-02-28T12:13:11.675Z,15.15
2019-02-28T12:15:42.596Z,15.40
2019-02-28T12:18:14.658Z,14.28
2019-02-28T12:20:45.804Z,14.13
2019-02-28T12:23:22.897Z,15.60
2019-02-28T12:25:51.175Z,15.28
2019-02-28T12:28:23.216Z,14.23
2019-02-28T12:30:53.438Z,14.80
2019-02-28T12:33:26.942Z,15.18
2019-02-28T12:35:58.282Z,15.48
2019-02-28T12:38:29.209Z,15.45
2019-02-28T12:41:00.260Z,15.13
2019-02-28T12:43:32.898Z,16.15
2019-02-28T12:46:04.597Z,15.08
2019-02-28T12:48:35.528Z,16.45
2019-02-28T12:51:06.314Z,16.70
2019-02-28T12:53:37.509Z,16.95
2019-02-28T12:56:07.841Z,16.27
2019-02-28T12:58:41.618Z,16.00
2019-02-28T13:01:14.437Z,15.53
2019-02-28T13:03:44.940Z,16.35
2019-02-28T13:06:23.439Z,13.70
2019-02-28T13:08:53.422Z,16.17
2019-02-28T13:11:24.924Z,15.60
2019-02-28T13:13:59.819Z,16.60
2019-02-28T13:16:28.652Z,17.25
2019-02-28T13:18:59.373Z,15.60
2019-02-28T13:21:31.250Z,15.90
2019-02-28T13:24:05.968Z,16.02
2019-02-28T13:26:36.490Z,18.60
2019-02-28T13:29:07.122Z,16.80
2019-02-28T13:31:38.156Z,16.20
2019-02-28T13:34:08.675Z,15.93
2019-02-28T13:36:41.061Z,16.87
2019-02-28T13:39:11.910Z,17.05
2019-02-28T13:41:42.634Z,16.77
2019-02-28T13:44:13.151Z,15.60
2019-02-28T13:46:44.608Z,15.93
2019-02-28T13:49:17.145Z,17.37
2019-02-28T13:51:48.421Z,17.27
2019-02-28T13:54:19.067Z,17.95
2019-02-28T13:56:52.665Z,17.90
2019-02-28T13:59:24.637Z,17.87
2019-02-28T14:01:56.135Z,16.65
2019-02-28T14:04:27.408Z,18.20
2019-02-28T14:06:58.051Z,16.60
2019-02-28T14:09:30.235Z,19.02
2019-02-28T14:12:01.248Z,17.73
2019-02-28T14:14:31.779Z,18.50
2019-02-28T14:17:02.399Z,18.17
2019-02-28T14:19:34.154Z,18.73
2019-02-28T14:22:04.695Z,19.70
2019-02-28T14:24:35.217Z,20.50
2019-02-28T14:27:05.846Z,19.67
2019-02-28T14:29:38.619Z,19.50
2019-02-28T14:32:09.356Z,20.27
2019-02-28T14:34:39.994Z,20.32
2019-02-28T14:37:10.714Z,19.27
2019-02-28T14:39:42.682Z,19.57
2019-02-28T14:42:15.048Z,23.67
2019-02-28T14:44:46.709Z,23.92
2019-02-28T14:47:19.184Z,23.83
2019-02-28T14:49:49.666Z,22.58
2019-02-28T14:52:20.345Z,22.32
2019-02-28T14:54:50.864Z,21.12
2019-02-28T14:57:22.925Z,23.45
2019-02-28T14:59:54.273Z,24.32
2019-02-28T15:02:27.942Z,25.85
2019-02-28T15:04:56.970Z,25.65
2019-02-28T15:07:28.414Z,24.57
2019-02-28T15:10:01.707Z,26.10
2019-02-28T15:12:31.723Z,26.52
2019-02-28T15:15:02.355Z,26.70
2019-02-28T15:17:33.189Z,27.58
2019-02-28T15:20:04.536Z,27.98
2019-02-28T15:22:39.629Z,27.45
2019-02-28T15:25:15.272Z,27.52
2019-02-28T15:27:47.421Z,30.08
2019-02-28T15:30:26.307Z,31.50
2019-02-28T15:32:56.937Z,29.60
2019-02-28T15:35:27.790Z,31.45
2019-02-28T15:37:58.916Z,30.57
2019-02-28T15:40:34.687Z,27.98
2019-02-28T15:43:04.887Z,30.82
2019-02-28T15:45:36.491Z,29.42
2019-02-28T15:48:08.811Z,29.02
2019-02-28T15:50:39.747Z,30.37
2019-02-28T15:53:11.310Z,30.75
2019-02-28T15:55:42.233Z,30.95
2019-02-28T15:58:12.461Z,31.48
2019-02-28T16:00:43.600Z,30.43
2019-02-28T16:03:16.643Z,29.52
2019-02-28T16:05:46.907Z,31.23
2019-02-28T16:08:18.015Z,30.00
2019-02-28T16:10:53.275Z,29.63
2019-02-28T16:13:22.651Z,29.85
2019-02-28T16:15:57.739Z,30.50
2019-02-28T16:18:29.063Z,31.12
2019-02-28T16:20:59.594Z,30.72
2019-02-28T16:23:31.141Z,29.42
2019-02-28T16:26:04.129Z,30.27
2019-02-28T16:28:35.130Z,20.97
2019-02-28T16:31:07.535Z,30.23
2019-02-28T16:33:37.984Z,27.40
2019-02-28T16:36:08.592Z,30.45
2019-02-28T16:38:42.474Z,30.15
2019-02-28T16:41:12.722Z,28.80
2019-02-28T16:43:58.606Z,30.05
2019-02-28T16:46:31.594Z,30.82
2019-02-28T16:49:03.049Z,29.32
2019-02-28T16:51:33.704Z,30.60
2019-02-28T16:54:06.866Z,31.07
2019-02-28T16:56:38.698Z,30.95
2019-02-28T16:59:10.415Z,29.35
2019-02-28T17:01:43.669Z,32.65
2019-02-28T17:04:17.286Z,30.82
2019-02-28T17:06:49.331Z,31.10
2019-02-28T17:09:21.911Z,29.35
2019-02-28T17:11:56.223Z,29.72
2019-02-28T17:14:26.957Z,28.65
2019-02-28T17:17:00.151Z,28.50
2019-02-28T17:19:32.464Z,27.37
2019-02-28T17:22:03.759Z,28.55
2019-02-28T17:24:35.113Z,27.10
2019-02-28T17:27:07.586Z,26.20
2019-02-28T17:29:39.643Z,24.70
2019-02-28T17:32:10.275Z,24.95
2019-02-28T17:34:41.830Z,24.65
2019-02-28T17:37:13.214Z,23.12
2019-02-28T17:39:43.396Z,23.30
2019-02-28T17:42:15.198Z,22.55
2019-02-28T17:44:54.071Z,22.22
2019-02-28T17:47:33.064Z,23.73
2019-02-28T17:50:30.047Z,23.87
2019-02-28T17:53:24.542Z,23.15
2019-02-28T17:56:30.590Z,24.05
2019-02-28T17:59:28.366Z,21.97
2019-02-28T18:02:23.979Z,23.32
2019-02-28T18:05:03.973Z,22.15
2019-02-28T18:07:46.745Z,23.42
2019-02-28T18:10:25.192Z,22.95
2019-02-28T18:13:21.168Z,22.73
2019-02-28T18:16:09.541Z,21.12
2019-02-28T18:19:02.784Z,22.48
2019-02-28T18:21:48.168Z,20.02
2019-02-28T18:24:42.143Z,22.90
2019-02-28T18:27:35.294Z,21.40
2019-02-28T18:30:27.614Z,21.95
2019-02-28T18:32:59.429Z,22.67
2019-02-28T18:35:32.628Z,22.42
2019-02-28T18:38:04.031Z,24.25
2019-02-28T18:40:34.967Z,23.12
2019-02-28T18:43:06.409Z,21.65
2019-02-28T18:45:38.072Z,24.15
2019-02-28T18:48:08.397Z,21.93
2019-02-28T18:50:40.689Z,22.55
2019-02-28T18:53:10.885Z,21.35
2019-02-28T18:55:42.956Z,21.20
2019-02-28T18:58:13.887Z,21.87
2019-02-28T19:00:44.927Z,22.10
2019-02-28T19:03:16.965Z,21.85
2019-02-28T19:05:47.520Z,21.55
2019-02-28T19:08:18.354Z,22.27
2019-02-28T19:10:49.473Z,20.23
2019-02-28T19:13:20.229Z,21.42
2019-02-28T19:15:50.420Z,21.17
2019-02-28T19:18:20.976Z,21.42
2019-02-28T19:20:52.113Z,21.45
2019-02-28T19:23:22.644Z,21.10
2019-02-28T19:25:53.276Z,22.20
2019-02-28T19:28:23.690Z,21.30
2019-02-28T19:30:54.328Z,22.58
2019-02-28T19:33:25.573Z,22.10
2019-02-28T19:35:56.720Z,22.02
2019-02-28T19:38:27.343Z,22.27
2019-02-28T19:40:58.135Z,22.30
2019-02-28T19:43:28.714Z,23.30
2019-02-28T19:45:59.397Z,23.05
2019-02-28T19:48:30.273Z,23.52
2019-02-28T19:51:01.106Z,23.07
2019-02-28T19:53:32.355Z,22.37
2019-02-28T19:56:02.778Z,21.97
2019-02-28T19:58:35.872Z,22.33
2019-02-28T20:01:18.581Z,21.52
2019-02-28T20:03:41.838Z,22.03
2019-02-28T20:06:12.697Z,22.17
2019-02-28T20:08:43.196Z,23.38
2019-02-28T20:11:14.547Z,22.70
2019-02-28T20:13:46.028Z,21.73
2019-02-28T20:16:17.137Z,23.80
2019-02-28T20:18:47.358Z,22.80
2019-02-28T20:21:20.357Z,23.75
2019-02-28T20:23:52.850Z,22.80
2019-02-28T20:26:24.169Z,23.42
2019-02-28T20:28:54.701Z,21.65
2019-02-28T20:31:26.637Z,22.55
2019-02-28T20:33:56.971Z,21.55
2019-02-28T20:36:27.602Z,21.62
2019-02-28T20:38:58.246Z,21.10
2019-02-28T20:41:28.766Z,21.80
2019-02-28T20:43:59.089Z,22.52
2019-02-28T20:46:30.025Z,21.85
2019-02-28T20:49:00.751Z,21.80
2019-02-28T20:51:31.998Z,22.10
2019-02-28T20:54:02.524Z,22.77
2019-02-28T20:56:34.079Z,22.40
2019-02-28T20:59:05.422Z,23.02
2019-02-28T21:01:37.888Z,22.65
2019-02-28T21:04:08.323Z,22.87
2019-02-28T21:06:39.773Z,24.35
2019-02-28T21:09:12.347Z,24.10
2019-02-28T21:11:43.796Z,24.23
2019-02-28T21:14:15.350Z,28.40
2019-02-28T21:16:48.476Z,27.02
2019-02-28T21:19:19.480Z,28.25
2019-02-28T21:21:49.797Z,31.50
2019-02-28T21:24:20.736Z,32.85
2019-02-28T21:26:51.366Z,32.98
2019-02-28T21:29:21.999Z,30.85
2019-02-28T21:31:53.756Z,32.08
2019-02-28T21:34:23.931Z,30.17
2019-02-28T21:36:54.402Z,29.30
2019-02-28T21:39:25.625Z,30.05
2019-02-28T21:41:56.375Z,31.27
2019-02-28T21:44:27.104Z,32.17
2019-02-28T21:46:57.623Z,28.62
2019-02-28T21:49:28.571Z,26.42
2019-02-28T21:51:59.710Z,25.50
2019-02-28T21:54:30.554Z,24.98
2019-02-28T21:57:01.186Z,24.92
2019-02-28T21:59:31.709Z,23.77
2019-02-28T22:02:03.567Z,24.35
2019-02-28T22:04:34.030Z,23.80
2019-02-28T22:07:05.546Z,26.02
2019-02-28T22:09:36.281Z,25.45
2019-02-28T22:12:06.804Z,24.57
2019-02-28T22:14:37.329Z,24.02
2019-02-28T22:17:07.966Z,23.18
2019-02-28T22:19:38.805Z,23.05
2019-02-28T22:22:12.453Z,23.77
2019-02-28T22:24:42.718Z,24.00
2019-02-28T22:27:13.350Z,24.23
2019-02-28T22:29:44.387Z,25.52
2019-02-28T22:32:24.082Z,25.60
2019-02-28T22:34:51.790Z,24.92
2019-02-28T22:37:23.241Z,24.82
2019-02-28T22:39:53.873Z,24.52
2019-02-28T22:42:24.510Z,24.77
2019-02-28T22:44:56.197Z,25.48
2019-02-28T22:47:27.101Z,25.25
2019-02-28T22:49:58.850Z,24.92
2019-02-28T22:52:29.788Z,25.05
2019-02-28T22:55:00.009Z,24.63
2019-02-28T22:57:33.095Z,22.00
2019-02-28T23:00:04.247Z,19.98
2019-02-28T23:02:34.459Z,21.25
2019-02-28T23:05:06.249Z,23.22
2019-02-28T23:07:36.537Z,22.50
2019-02-28T23:10:08.069Z,23.27
2019-02-28T23:12:38.408Z,22.62
2019-02-28T23:15:09.962Z,22.27
2019-02-28T23:17:40.594Z,23.22
2019-02-28T23:20:11.726Z,24.18
2019-02-28T23:22:42.568Z,30.25
2019-02-28T23:25:13.704Z,31.77
2019-02-28T23:27:44.445Z,30.90
2019-02-28T23:30:21.980Z,30.15
2019-02-28T23:32:55.536Z,26.00
2019-02-28T23:35:29.250Z,25.57
2019-02-28T23:38:01.199Z,27.40
2019-02-28T23:40:33.365Z,29.27
2019-02-28T23:43:04.503Z,31.77
2019-02-28T23:45:35.135Z,33.88
2019-02-28T23:48:05.904Z,36.08
2019-02-28T23:50:36.237Z,34.03
2019-02-28T23:53:06.821Z,33.15
2019-02-28T23:55:37.759Z,33.38
2019-02-28T23:58:08.389Z,32.78
